Time;durP1;ratioP1;P1;durP2;ratioP2;P2;SDS_P1;SDS_P2;PMS_P1;PMS_P2;Temp;Humidity;BMP_temperature;BMP_pressure;BME280_temperature;BME280_humidity;BME280_pressure;Samples;Min_cycle;Max_cycle;Signal;HPM_P1;HPM_P2
2022/03/09 00:01:34;;;;;;;37.08;20.48;;;;;;;0.18;69.50;102085.01;1675592;84;21154;-83
2022/03/09 00:04:01;;;;;;;36.05;20.25;;;;;;;0.14;69.66;102088.11;1675801;85;21121;-83
2022/03/09 00:06:28;;;;;;;40.00;20.62;;;;;;;0.11;69.83;102082.68;1669227;84;21113;-84
2022/03/09 00:08:59;;;;;;;39.23;20.80;;;;;;;0.09;69.96;102080.70;1676271;85;21778;-85
2022/03/09 00:11:25;;;;;;;41.70;21.90;;;;;;;0.05;70.03;102084.70;1671969;84;21099;-85
2022/03/09 00:13:51;;;;;;;38.55;20.37;;;;;;;0.05;70.31;102082.51;1678639;83;21073;-85
2022/03/09 00:16:18;;;;;;;36.38;20.15;;;;;;;0.03;70.39;102080.17;1667933;84;21889;-86
2022/03/09 00:18:45;;;;;;;38.75;19.45;;;;;;;0.00;70.49;102075.65;1660265;84;21755;-86
2022/03/09 00:21:11;;;;;;;36.98;19.75;;;;;;;-0.03;70.55;102073.67;1678700;82;21816;-85
2022/03/09 00:23:38;;;;;;;34.65;19.52;;;;;;;-0.05;70.73;102066.55;1713353;82;21568;-85
2022/03/09 00:26:05;;;;;;;43.68;19.87;;;;;;;-0.06;70.98;102064.33;1704059;82;21106;-85
2022/03/09 00:28:33;;;;;;;36.95;20.82;;;;;;;-0.06;71.09;102070.80;1712757;82;21081;-84
2022/03/09 00:31:00;;;;;;;38.40;21.05;;;;;;;-0.06;71.31;102068.21;1710122;82;21085;-83
2022/03/09 00:33:28;;;;;;;32.13;20.12;;;;;;;-0.06;71.47;102067.31;1717492;82;21757;-83
2022/03/09 00:35:55;;;;;;;37.73;21.42;;;;;;;-0.06;71.59;102067.31;1716543;82;21006;-83
2022/03/09 00:38:22;;;;;;;35.35;20.20;;;;;;;-0.08;71.69;102074.94;1676126;84;21032;-83
2022/03/09 00:40:50;;;;;;;38.90;20.25;;;;;;;-0.09;71.94;102073.14;1660851;84;21102;-84
2022/03/09 00:43:17;;;;;;;36.25;19.48;;;;;;;-0.10;71.92;102067.81;1677588;84;21095;-83
2022/03/09 00:45:43;;;;;;;38.33;21.23;;;;;;;-0.10;72.09;102075.58;1672739;83;22693;-84
2022/03/09 00:48:10;;;;;;;40.20;21.52;;;;;;;-0.10;72.18;102080.76;1698646;83;21658;-84
2022/03/09 00:50:37;;;;;;;34.05;19.82;;;;;;;-0.14;72.21;102078.28;1680310;83;21102;-84
2022/03/09 00:53:04;;;;;;;37.08;20.35;;;;;;;-0.13;72.29;102083.06;1706210;82;21086;-83
2022/03/09 00:55:30;;;;;;;36.23;20.12;;;;;;;-0.15;72.35;102082.95;1714528;82;21090;-84
2022/03/09 00:58:02;;;;;;;32.05;18.98;;;;;;;-0.17;72.44;102087.05;1712877;81;21806;-84
2022/03/09 01:00:27;;;;;;;37.28;20.32;;;;;;;-0.18;72.60;102081.77;1710084;82;21112;-83
2022/03/09 01:02:54;;;;;;;39.53;21.45;;;;;;;-0.19;72.75;102086.01;1704465;82;21099;-83
2022/03/09 01:05:21;;;;;;;36.88;21.68;;;;;;;-0.21;72.83;102085.90;1714794;82;21074;-84
2022/03/09 01:07:48;;;;;;;38.63;20.55;;;;;;;-0.22;72.96;102090.53;1713521;81;21098;-83
2022/03/09 01:10:14;;;;;;;33.58;19.27;;;;;;;-0.25;73.10;102083.78;1679997;84;22744;-83
2022/03/09 01:12:41;;;;;;;42.35;22.05;;;;;;;-0.26;73.11;102092.73;1678140;85;21075;-84
2022/03/09 01:15:08;;;;;;;36.93;21.23;;;;;;;-0.28;73.25;102088.70;1685175;83;21094;-83
2022/03/09 01:17:35;;;;;;;37.98;20.95;;;;;;;-0.30;73.34;102089.31;1642526;84;21178;-83
2022/03/09 01:20:02;;;;;;;38.50;22.00;;;;;;;-0.31;73.46;102093.98;1694412;83;21712;-84
2022/03/09 01:22:28;;;;;;;35.55;20.65;;;;;;;-0.34;73.52;102093.30;1700969;82;21766;-83
2022/03/09 01:24:55;;;;;;;43.42;21.45;;;;;;;-0.36;73.57;102094.84;1731176;82;21026;-83
2022/03/09 01:27:22;;;;;;;40.23;21.50;;;;;;;-0.37;73.67;102085.67;1734178;82;21634;-83
2022/03/09 01:29:48;;;;;;;36.95;21.52;;;;;;;-0.38;73.71;102089.92;1735251;81;21058;-84
2022/03/09 01:32:15;;;;;;;39.38;22.05;;;;;;;-0.40;73.81;102089.77;1736195;82;21497;-84
2022/03/09 01:34:42;;;;;;;40.43;22.05;;;;;;;-0.42;73.99;102087.44;1736020;82;21802;-83
2022/03/09 01:37:08;;;;;;;37.80;21.85;;;;;;;-0.43;74.01;102088.63;1733739;81;21082;-84
2022/03/09 01:39:35;;;;;;;37.98;21.12;;;;;;;-0.46;74.13;102089.23;1731152;81;21503;-83
2022/03/09 01:42:02;;;;;;;41.37;22.25;;;;;;;-0.46;74.18;102089.62;1727852;82;21069;-84
2022/03/09 01:44:31;;;;;;;41.15;22.15;;;;;;;-0.50;74.24;102081.97;1729450;82;21046;-84
2022/03/09 01:46:57;;;;;;;36.48;21.80;;;;;;;-0.50;74.31;102086.24;1736012;81;21797;-85
2022/03/09 01:49:23;;;;;;;32.85;20.95;;;;;;;-0.52;74.37;102082.22;1727774;82;21067;-84
2022/03/09 01:51:54;;;;;;;34.98;21.12;;;;;;;-0.52;74.47;102080.92;1736246;82;21531;-83
2022/03/09 01:54:20;;;;;;;37.20;21.87;;;;;;;-0.52;74.75;102078.73;1731002;82;21571;-83
2022/03/09 01:56:47;;;;;;;37.95;21.25;;;;;;;-0.53;74.78;102079.09;1730538;82;21053;-83
2022/03/09 01:59:17;;;;;;;39.03;20.55;;;;;;;-0.54;74.80;102080.27;1728568;81;22591;-84
2022/03/09 02:01:46;;;;;;;34.55;20.88;;;;;;;-0.56;74.88;102079.19;1730229;82;21062;-83
2022/03/09 02:04:13;;;;;;;33.78;20.82;;;;;;;-0.58;75.00;102079.08;1735965;82;21085;-82
2022/03/09 02:06:39;;;;;;;39.67;20.85;;;;;;;-0.61;75.18;102066.76;1736166;82;21059;-84
2022/03/09 02:11:54;;;;;;;38.13;22.40;;;;;;;-0.61;75.43;102077.10;1725771;82;21819;-83
2022/03/09 02:14:43;;;;;;;39.60;21.87;;;;;;;-0.63;75.41;102069.59;1738880;81;21563;-83
2022/03/09 02:17:14;;;;;;;34.25;21.05;;;;;;;-0.66;75.51;102070.63;1739216;81;21105;-83
2022/03/09 02:19:42;;;;;;;36.33;22.22;;;;;;;-0.67;75.47;102071.78;1685814;83;21395;-82
2022/03/09 02:22:32;;;;;;;37.25;21.33;;;;;;;-0.69;75.57;102071.63;1710300;82;21043;-83
2022/03/09 02:25:00;;;;;;;39.42;21.10;;;;;;;-0.72;75.62;102079.09;1737482;80;22720;-84
2022/03/09 02:27:30;;;;;;;35.60;20.70;;;;;;;-0.73;75.93;102082.83;1705152;83;21107;-87
2022/03/09 02:29:57;;;;;;;37.10;21.55;;;;;;;-0.75;75.87;102086.95;1699767;82;21285;-87
2022/03/09 02:32:23;;;;;;;37.17;22.00;;;;;;;-0.77;75.89;102085.91;1678405;82;21098;-85
2022/03/09 02:34:50;;;;;;;39.10;20.88;;;;;;;-0.79;75.94;102093.52;1688672;83;21051;-84
2022/03/09 02:37:17;;;;;;;38.58;20.82;;;;;;;-0.83;75.95;102096.20;1714274;83;21745;-89
2022/03/09 02:39:43;;;;;;;35.45;20.52;;;;;;;-0.84;76.08;102092.20;1714526;83;21045;-88
2022/03/09 02:42:10;;;;;;;36.23;20.92;;;;;;;-0.85;76.13;102096.84;1714826;83;21084;-87
2022/03/09 02:45:17;;;;;;;40.05;21.87;;;;;;;-0.88;76.18;102096.54;1714580;83;21038;-91
2022/03/09 02:47:46;;;;;;;36.13;20.80;;;;;;;-0.89;76.19;102099.52;1630791;88;21070;-87
2022/03/09 02:50:17;;;;;;;36.05;21.30;;;;;;;-0.90;76.27;102097.72;1654982;86;21880;-87
2022/03/09 02:52:44;;;;;;;42.30;21.75;;;;;;;-0.91;76.30;102108.81;1661556;86;21579;-86
2022/03/09 02:55:11;;;;;;;37.95;20.95;;;;;;;-0.92;76.28;102106.08;1661752;86;21150;-86
2022/03/09 02:57:38;;;;;;;34.55;20.62;;;;;;;-0.92;76.36;102112.18;1661402;86;21253;-86
2022/03/09 03:00:08;;;;;;;39.45;22.27;;;;;;;-0.91;76.44;102106.62;1661456;86;21502;-87
2022/03/09 03:02:36;;;;;;;40.00;21.57;;;;;;;-0.92;76.52;102108.30;1661816;86;21785;-89
2022/03/09 03:05:05;;;;;;;33.45;19.75;;;;;;;-0.92;76.54;102110.89;1651435;86;21423;-85
2022/03/09 03:07:31;;;;;;;37.88;21.35;;;;;;;-0.92;76.51;102109.59;1646032;86;21278;-87
2022/03/09 03:10:00;;;;;;;38.45;21.45;;;;;;;-0.93;76.54;102111.64;1602235;88;21593;-87
2022/03/09 03:12:27;;;;;;;36.50;21.75;;;;;;;-0.94;76.60;102111.49;1641121;84;21141;-87
2022/03/09 03:14:56;;;;;;;35.38;21.35;;;;;;;-0.95;76.59;102111.88;1636956;87;21775;-87
2022/03/09 03:17:22;;;;;;;36.85;22.48;;;;;;;-0.94;76.66;102114.97;1636937;87;21081;-87
2022/03/09 03:19:48;;;;;;;36.93;21.70;;;;;;;-0.95;76.76;102114.86;1637303;87;21093;-87
2022/03/09 03:22:15;;;;;;;42.50;21.95;;;;;;;-0.96;76.76;102113.92;1654638;83;21317;-89
2022/03/09 03:24:42;;;;;;;38.10;21.42;;;;;;;-0.96;76.75;102115.22;1690372;83;21054;-89
2022/03/09 03:27:09;;;;;;;34.05;21.60;;;;;;;-1.00;76.88;102106.66;1709491;83;21802;-90
2022/03/09 03:29:38;;;;;;;37.25;21.40;;;;;;;-0.95;76.89;102124.81;1709288;83;21513;-88
2022/03/09 03:32:06;;;;;;;42.35;21.97;;;;;;;-0.96;76.91;102122.97;1709618;83;21117;-87
2022/03/09 03:34:33;;;;;;;33.02;21.02;;;;;;;-0.96;76.87;102128.53;1709815;83;21034;-87
2022/03/09 03:36:59;;;;;;;34.83;21.25;;;;;;;-0.97;76.83;102129.32;1689651;83;21275;-88
2022/03/09 03:39:26;;;;;;;36.23;22.02;;;;;;;-0.99;76.78;102134.34;1709493;83;21694;-89
2022/03/09 03:41:53;;;;;;;35.75;21.93;;;;;;;-1.00;76.81;102137.67;1699763;83;21086;-89
2022/03/09 03:44:27;;;;;;;33.18;20.35;;;;;;;-1.10;76.81;102121.70;1703422;83;21310;-89
2022/03/09 03:46:48;;;;;;;42.93;21.62;;;;;;;-1.04;76.85;102142.94;1685968;83;21062;-90
2022/03/09 03:49:19;;;;;;;37.60;22.22;;;;;;;-1.02;76.86;102150.84;1681664;85;21119;-89
2022/03/09 03:51:46;;;;;;;35.28;21.52;;;;;;;-1.02;76.97;102150.45;1669760;84;21746;-87
2022/03/09 03:54:13;;;;;;;33.65;21.42;;;;;;;-1.03;77.02;102151.23;1676539;85;21612;-88
2022/03/09 03:56:42;;;;;;;39.50;21.45;;;;;;;-1.05;77.09;102146.30;1681832;85;21064;-89
2022/03/09 03:59:11;;;;;;;37.40;22.82;;;;;;;-1.11;77.19;102140.92;1674662;84;21616;-89
2022/03/09 04:01:38;;;;;;;38.53;21.82;;;;;;;-1.05;77.22;102146.30;1670552;85;21064;-88
2022/03/09 04:04:07;;;;;;;34.78;21.15;;;;;;;-1.06;77.25;102149.64;1670808;85;21780;-89
2022/03/09 04:06:34;;;;;;;34.23;20.57;;;;;;;-1.07;77.32;102151.72;1670525;85;21318;-88
2022/03/09 04:09:01;;;;;;;35.45;21.52;;;;;;;-1.08;77.33;102152.86;1680193;85;21247;-87
2022/03/09 04:11:27;;;;;;;36.40;22.58;;;;;;;-1.10;77.39;102156.58;1681842;85;21052;-86
2022/03/09 04:13:54;;;;;;;37.88;22.27;;;;;;;-1.12;77.36;102150.36;1684301;84;21047;-86
2022/03/09 04:16:21;;;;;;;34.30;20.85;;;;;;;-1.14;77.32;102153.58;1688070;84;21763;-87
2022/03/09 04:18:47;;;;;;;39.83;21.85;;;;;;;-1.18;77.31;102154.56;1668716;85;21566;-88
2022/03/09 04:21:14;;;;;;;37.25;21.23;;;;;;;-1.19;77.35;102151.84;1679791;85;21039;-88
2022/03/09 04:23:43;;;;;;;35.25;22.15;;;;;;;-1.19;77.34;102157.00;1708862;83;21090;-88
2022/03/09 04:26:10;;;;;;;35.88;21.93;;;;;;;-1.21;77.38;102148.20;1729489;82;21130;-89
2022/03/09 04:28:36;;;;;;;37.28;21.48;;;;;;;-1.20;77.52;102148.74;1734323;82;21772;-87
2022/03/09 04:31:03;;;;;;;37.58;22.67;;;;;;;-1.21;77.52;102152.08;1734341;82;21057;-88
2022/03/09 04:33:36;;;;;;;35.75;20.85;;;;;;;-1.23;77.54;102151.02;1734074;82;21046;-90
2022/03/09 04:36:04;;;;;;;37.58;21.52;;;;;;;-1.23;77.59;102151.02;1685490;82;21150;-88
2022/03/09 04:38:33;;;;;;;34.55;20.48;;;;;;;-1.25;77.60;102151.27;1734233;82;21053;-88
2022/03/09 04:40:59;;;;;;;35.03;21.50;;;;;;;-1.28;77.60;102147.98;1734436;82;21780;-88
2022/03/09 04:43:29;;;;;;;32.50;20.55;;;;;;;-1.30;77.64;102143.06;1734303;82;21037;-89
2022/03/09 04:45:57;;;;;;;33.55;22.10;;;;;;;-1.30;77.74;102151.20;1735810;82;21057;-86
2022/03/09 04:48:24;;;;;;;37.95;22.17;;;;;;;-1.29;77.86;102156.91;1736630;82;21577;-87
2022/03/09 04:50:51;;;;;;;39.55;22.80;;;;;;;-1.28;77.97;102160.00;1734717;82;21038;-85
2022/03/09 04:53:17;;;;;;;39.35;22.62;;;;;;;-1.31;78.01;102155.86;1733889;82;21771;-85
2022/03/09 04:55:44;;;;;;;39.60;22.27;;;;;;;-1.32;78.03;102154.92;1733732;80;21008;-80
2022/03/09 04:58:11;;;;;;;40.03;22.20;;;;;;;-1.33;78.02;102157.35;1722462;81;21103;-80
2022/03/09 05:00:38;;;;;;;39.08;22.65;;;;;;;-1.36;78.02;102148.95;1746985;81;21707;-80
2022/03/09 05:03:04;;;;;;;39.92;23.83;;;;;;;-1.36;78.14;102159.28;1731019;82;21067;-79
2022/03/09 05:05:31;;;;;;;34.18;21.87;;;;;;;-1.37;78.12;102158.38;1746500;82;21831;-81
2022/03/09 05:07:58;;;;;;;38.80;22.55;;;;;;;-1.37;78.13;102163.55;1740833;80;21230;-80
2022/03/09 05:10:25;;;;;;;36.03;22.10;;;;;;;-1.38;78.14;102164.68;1746899;81;21569;-80
2022/03/09 05:12:51;;;;;;;38.90;22.60;;;;;;;-1.38;78.15;102161.70;1738517;80;21733;-80
2022/03/09 05:15:18;;;;;;;44.95;22.75;;;;;;;-1.38;78.19;102159.13;1733888;81;21078;-80
2022/03/09 05:17:45;;;;;;;39.38;22.75;;;;;;;-1.38;78.20;102168.16;1715292;82;21761;-80
2022/03/09 05:20:12;;;;;;;39.65;22.62;;;;;;;-1.37;78.21;102159.67;1748863;80;21077;-80
2022/03/09 05:22:39;;;;;;;38.83;22.77;;;;;;;-1.34;78.26;102154.27;1713188;82;21061;-80
2022/03/09 05:25:06;;;;;;;38.73;22.95;;;;;;;-1.33;78.32;102162.16;1685826;83;21598;-80
2022/03/09 05:27:33;;;;;;;38.75;22.67;;;;;;;-1.32;78.23;102163.97;1691637;83;21386;-80
2022/03/09 05:29:59;;;;;;;38.05;22.07;;;;;;;-1.32;78.25;102161.38;1692239;83;21750;-80
2022/03/09 05:32:26;;;;;;;36.23;22.42;;;;;;;-1.29;78.26;102164.66;1709983;82;21078;-79
2022/03/09 05:34:53;;;;;;;38.13;21.90;;;;;;;-1.27;78.31;102164.03;1710852;83;21624;-79
2022/03/09 05:37:19;;;;;;;40.20;22.58;;;;;;;-1.23;78.28;102164.84;1713149;83;21605;-80
2022/03/09 05:39:49;;;;;;;39.53;22.45;;;;;;;-1.22;78.24;102171.84;1706318;83;21668;-80
2022/03/09 05:42:23;;;;;;;37.73;21.73;;;;;;;-1.17;78.28;102169.28;1704410;83;21956;-82
2022/03/09 05:44:44;;;;;;;34.40;21.35;;;;;;;-1.12;78.26;102175.30;1700394;83;21062;-87
2022/03/09 05:47:11;;;;;;;35.58;21.50;;;;;;;-1.08;78.28;102173.14;1712609;83;21511;-86
2022/03/09 05:49:38;;;;;;;34.90;21.15;;;;;;;-1.05;78.24;102166.98;1711203;83;21072;-85
2022/03/09 05:52:04;;;;;;;33.28;21.77;;;;;;;-1.01;78.26;102171.66;1711381;83;21518;-89
2022/03/09 05:54:33;;;;;;;35.08;21.60;;;;;;;-0.92;78.27;102178.09;1711907;83;21769;-86
2022/03/09 05:57:02;;;;;;;37.40;21.73;;;;;;;-0.86;78.24;102180.34;1709601;82;21550;-87
2022/03/09 05:59:28;;;;;;;35.38;22.35;;;;;;;-0.80;78.25;102186.08;1713511;83;21149;-83
2022/03/09 06:01:55;;;;;;;34.75;21.37;;;;;;;-0.75;78.23;102183.55;1693818;84;21065;-85
2022/03/09 06:04:21;;;;;;;36.38;21.62;;;;;;;-0.71;78.17;102179.55;1683626;83;21591;-82
2022/03/09 06:06:48;;;;;;;37.10;23.07;;;;;;;-0.68;78.17;102185.01;1687409;84;21770;-81
2022/03/09 06:09:34;;;;;;;36.40;20.65;;;;;;;-0.61;78.19;102192.58;1662252;84;21101;-90
2022/03/09 06:11:56;;;;;;;34.45;21.82;;;;;;;-0.54;78.14;102191.48;1628273;86;21615;-80
2022/03/09 06:14:22;;;;;;;32.28;21.73;;;;;;;-0.50;78.09;102191.89;1616415;86;21698;-80
2022/03/09 06:16:49;;;;;;;36.60;22.50;;;;;;;-0.43;78.10;102196.88;1623249;86;21134;-80
2022/03/09 06:19:16;;;;;;;33.78;20.85;;;;;;;-0.37;78.04;102186.18;1631817;86;22337;-90
2022/03/09 06:21:43;;;;;;;39.60;23.07;;;;;;;-0.30;78.07;102185.98;1625402;86;21083;-82
2022/03/09 06:24:10;;;;;;;37.63;21.57;;;;;;;-0.21;77.98;102188.12;1666790;83;21385;-82
2022/03/09 06:26:36;;;;;;;36.53;22.45;;;;;;;-0.15;77.91;102190.72;1673343;83;21616;-81
2022/03/09 06:29:06;;;;;;;33.70;21.48;;;;;;;-0.07;77.90;102193.64;1657057;85;21628;-80
2022/03/09 06:31:32;;;;;;;35.17;21.42;;;;;;;-0.02;77.77;102191.98;1667275;85;22617;-80
2022/03/09 06:33:59;;;;;;;37.93;21.52;;;;;;;0.05;77.77;102199.91;1666884;85;21142;-81
2022/03/09 06:36:26;;;;;;;36.75;22.45;;;;;;;0.11;77.71;102194.02;1718335;80;21056;-80
2022/03/09 06:38:52;;;;;;;37.63;22.13;;;;;;;0.18;77.71;102200.23;1746423;81;21132;-80
2022/03/09 06:41:23;;;;;;;33.85;20.70;;;;;;;0.25;77.65;102195.23;1734895;82;21073;-80
2022/03/09 06:43:50;;;;;;;34.20;21.33;;;;;;;0.33;77.63;102195.52;1722575;81;21860;-80
2022/03/09 06:46:16;;;;;;;38.38;22.25;;;;;;;0.38;77.56;102187.78;1727561;81;21565;-80
2022/03/09 06:48:43;;;;;;;35.55;21.52;;;;;;;0.50;77.49;102203.50;1753957;80;21550;-79
2022/03/09 06:51:10;;;;;;;35.78;21.52;;;;;;;0.56;77.36;102200.18;1749291;81;21106;-79
2022/03/09 06:53:37;;;;;;;34.95;21.07;;;;;;;0.63;77.31;102206.80;1745297;80;21079;-79
2022/03/09 06:56:04;;;;;;;35.13;21.10;;;;;;;0.71;77.21;102212.29;1750656;80;21736;-79
2022/03/09 06:58:30;;;;;;;33.67;19.57;;;;;;;0.81;77.20;102210.11;1750142;81;21054;-79
2022/03/09 07:00:57;;;;;;;31.70;19.67;;;;;;;0.92;77.12;102213.62;1753842;80;21132;-78
2022/03/09 07:03:24;;;;;;;32.80;20.90;;;;;;;1.02;77.02;102207.18;1754283;80;21134;-79
2022/03/09 07:05:52;;;;;;;32.93;18.92;;;;;;;1.12;76.91;102210.17;1728614;80;21600;-73
2022/03/09 07:08:19;;;;;;;31.20;19.40;;;;;;;1.23;76.79;102213.70;1748531;80;21759;-73
2022/03/09 07:10:46;;;;;;;31.73;19.98;;;;;;;1.33;76.67;102222.41;1748446;80;21006;-73
2022/03/09 07:13:12;;;;;;;34.13;19.12;;;;;;;1.46;76.61;102217.86;1748195;80;21047;-73
2022/03/09 07:15:39;;;;;;;33.95;18.87;;;;;;;1.55;76.35;102221.63;1740250;80;21192;-73
2022/03/09 07:18:06;;;;;;;27.77;17.30;;;;;;;1.63;76.13;102215.39;1738905;81;22275;-73
2022/03/09 07:20:32;;;;;;;32.38;18.37;;;;;;;1.70;75.98;102217.73;1738300;81;21786;-73
2022/03/09 07:22:59;;;;;;;28.57;19.10;;;;;;;1.77;75.98;102215.27;1738304;80;21051;-73
2022/03/09 07:25:26;;;;;;;32.63;18.65;;;;;;;1.88;75.92;102216.18;1705004;82;21062;-73
2022/03/09 07:27:53;;;;;;;31.33;19.20;;;;;;;1.95;75.65;102214.59;1705655;83;21101;-73
2022/03/09 07:30:21;;;;;;;33.88;19.62;;;;;;;2.00;75.46;102213.28;1691977;83;21138;-73
2022/03/09 07:32:48;;;;;;;30.00;18.37;;;;;;;2.07;75.35;102209.13;1681522;84;21776;-73
2022/03/09 07:35:14;;;;;;;30.57;18.50;;;;;;;2.15;75.26;102218.84;1674836;84;21086;-73
2022/03/09 07:37:41;;;;;;;30.27;18.25;;;;;;;2.24;75.21;102220.00;1682810;84;21552;-73
2022/03/09 07:40:08;;;;;;;26.15;16.82;;;;;;;2.31;75.04;102216.73;1688482;83;21011;-73
2022/03/09 07:42:35;;;;;;;30.65;17.92;;;;;;;2.40;74.92;102219.55;1712090;82;21095;-73
2022/03/09 07:45:03;;;;;;;31.20;17.57;;;;;;;2.47;74.88;102221.88;1707192;83;23081;-74
2022/03/09 07:47:30;;;;;;;34.63;18.85;;;;;;;2.55;74.59;102223.79;1709854;83;21086;-73
2022/03/09 07:49:57;;;;;;;34.08;18.98;;;;;;;2.63;74.61;102227.94;1697414;83;21082;-73
2022/03/09 07:52:23;;;;;;;23.32;15.72;;;;;;;2.69;74.55;102229.72;1682539;84;21082;-73
2022/03/09 07:54:50;;;;;;;27.13;17.00;;;;;;;2.79;74.44;102229.66;1680863;83;21086;-73
2022/03/09 07:57:16;;;;;;;28.02;18.00;;;;;;;2.87;74.28;102234.17;1684226;83;21711;-73
2022/03/09 07:59:43;;;;;;;28.90;18.30;;;;;;;2.93;74.24;102234.68;1681903;84;21130;-74
2022/03/09 08:02:10;;;;;;;27.95;18.15;;;;;;;2.99;74.13;102234.27;1680288;84;21146;-73
2022/03/09 08:04:36;;;;;;;26.93;16.87;;;;;;;3.05;73.98;102228.23;1693179;84;21648;-73
2022/03/09 08:07:03;;;;;;;27.25;17.02;;;;;;;3.15;73.97;102235.97;1679101;83;21095;-73
2022/03/09 08:09:30;;;;;;;34.05;18.65;;;;;;;3.23;73.85;102233.59;1708604;82;22594;-73
2022/03/09 08:11:57;;;;;;;37.93;22.60;;;;;;;3.30;73.80;102233.28;1693780;83;21078;-73
2022/03/09 08:14:23;;;;;;;37.13;22.22;;;;;;;3.37;73.71;102232.05;1686278;83;21334;-74
2022/03/09 08:16:50;;;;;;;38.20;22.25;;;;;;;3.44;73.68;102222.64;1677304;83;21255;-74
2022/03/09 08:19:17;;;;;;;42.15;23.32;;;;;;;3.52;73.57;102231.44;1720609;81;21087;-74
2022/03/09 08:21:44;;;;;;;41.33;23.35;;;;;;;3.60;73.51;102220.80;1693160;83;21747;-75
2022/03/09 08:24:11;;;;;;;34.33;20.23;;;;;;;3.65;73.35;102225.97;1687511;84;21094;-75
2022/03/09 08:26:37;;;;;;;31.12;18.35;;;;;;;3.72;73.25;102218.62;1708757;82;21023;-74
2022/03/09 08:29:04;;;;;;;40.88;21.00;;;;;;;3.77;73.12;102220.78;1709425;81;21054;-75
2022/03/09 08:31:31;;;;;;;38.02;20.55;;;;;;;3.82;73.03;102219.84;1705078;83;21462;-75
2022/03/09 08:33:58;;;;;;;33.98;19.52;;;;;;;3.88;73.08;102227.72;1709535;82;22622;-74
2022/03/09 08:36:25;;;;;;;29.80;16.02;;;;;;;3.97;73.05;102222.70;1710888;82;21587;-75
2022/03/09 08:38:51;;;;;;;30.48;17.95;;;;;;;4.07;72.93;102221.29;1727629;81;22320;-75
2022/03/09 08:41:18;;;;;;;29.82;14.83;;;;;;;4.18;72.88;102219.09;1709180;83;21726;-75
2022/03/09 08:43:44;;;;;;;22.85;12.95;;;;;;;4.29;72.83;102219.48;1685332;82;21571;-74
2022/03/09 08:46:11;;;;;;;15.85;9.43;;;;;;;4.43;72.66;102216.61;1704870;83;21728;-74
2022/03/09 08:48:39;;;;;;;16.05;8.70;;;;;;;4.56;72.28;102211.90;1699782;83;21098;-74
2022/03/09 08:51:06;;;;;;;22.80;9.10;;;;;;;4.68;71.94;102208.86;1704298;83;21090;-75
2022/03/09 08:53:33;;;;;;;14.87;8.78;;;;;;;4.78;71.64;102212.13;1694784;83;21161;-74
2022/03/09 08:56:00;;;;;;;17.27;9.48;;;;;;;4.89;71.32;102218.12;1730617;81;21062;-75
2022/03/09 08:58:27;;;;;;;20.25;7.95;;;;;;;4.97;71.19;102223.07;1726165;82;21755;-74
2022/03/09 09:00:53;;;;;;;10.70;6.80;;;;;;;5.06;70.84;102226.34;1711253;81;21123;-74
2022/03/09 09:03:20;;;;;;;20.48;7.60;;;;;;;5.14;70.75;102228.19;1709098;81;21069;-74
2022/03/09 09:05:46;;;;;;;11.30;7.53;;;;;;;5.23;70.65;102231.45;1698320;82;21650;-74
2022/03/09 09:08:13;;;;;;;11.73;6.62;;;;;;;5.31;70.20;102229.41;1713039;82;21746;-74
2022/03/09 09:10:40;;;;;;;9.83;6.45;;;;;;;5.36;69.60;102230.61;1706336;82;21751;-74
2022/03/09 09:13:07;;;;;;;11.97;6.47;;;;;;;5.42;69.73;102230.13;1729397;82;21070;-74
2022/03/09 09:15:33;;;;;;;15.15;5.60;;;;;;;5.49;69.62;102231.47;1696711;82;21149;-75
2022/03/09 09:18:04;;;;;;;10.72;6.25;;;;;;;5.59;69.48;102235.21;1711515;82;21308;-75
2022/03/09 09:20:31;;;;;;;6.90;4.60;;;;;;;5.67;69.45;102234.05;1710300;82;21050;-74
2022/03/09 09:22:57;;;;;;;11.22;5.15;;;;;;;5.75;69.19;102236.78;1708154;82;21674;-75
2022/03/09 09:25:25;;;;;;;11.22;5.10;;;;;;;5.82;68.76;102245.95;1711085;81;21173;-74
2022/03/09 09:27:56;;;;;;;13.48;5.58;;;;;;;5.88;68.52;102242.44;1712237;82;21058;-74
2022/03/09 09:30:23;;;;;;;12.00;5.97;;;;;;;5.93;68.21;102250.20;1703904;82;21130;-75
2022/03/09 09:32:50;;;;;;;13.03;6.53;;;;;;;5.99;68.30;102258.48;1710682;82;21139;-80
2022/03/09 09:35:17;;;;;;;14.45;7.15;;;;;;;6.02;68.10;102253.85;1719643;82;21752;-76
2022/03/09 09:37:44;;;;;;;13.70;5.58;;;;;;;6.02;68.06;102235.18;1710684;83;21035;-75
2022/03/09 09:40:13;;;;;;;13.95;5.90;;;;;;;6.08;67.90;102242.91;1719374;82;21091;-73
2022/03/09 09:42:40;;;;;;;15.43;5.80;;;;;;;6.11;67.55;102253.17;1743599;81;21572;-74
2022/03/09 09:45:07;;;;;;;12.18;5.33;;;;;;;6.14;67.22;102242.93;1733649;81;21572;-74
2022/03/09 09:47:34;;;;;;;12.98;4.47;;;;;;;6.18;66.90;102242.33;1739160;81;22629;-74
2022/03/09 09:50:02;;;;;;;8.25;3.98;;;;;;;6.25;66.32;102250.19;1742042;82;21058;-74
2022/03/09 09:52:32;;;;;;;9.53;3.42;;;;;;;6.30;66.16;102250.48;1738910;82;21086;-74
2022/03/09 09:55:03;;;;;;;5.47;3.12;;;;;;;6.35;65.73;102246.47;1746630;82;21068;-74
2022/03/09 09:57:29;;;;;;;7.85;3.60;;;;;;;6.39;65.81;102244.55;1746488;81;21090;-74
2022/03/09 09:59:57;;;;;;;6.75;4.00;;;;;;;6.46;65.40;102249.77;1745251;82;21770;-74
2022/03/09 10:02:23;;;;;;;9.80;3.33;;;;;;;6.54;65.31;102250.78;1727900;81;21149;-74
2022/03/09 10:04:50;;;;;;;11.85;2.85;;;;;;;6.58;65.04;102250.58;1734653;82;21723;-74
2022/03/09 10:07:17;;;;;;;10.20;3.02;;;;;;;6.63;64.86;102254.41;1743027;82;21098;-74
2022/03/09 10:09:44;;;;;;;8.53;3.08;;;;;;;6.71;64.75;102261.45;1736104;82;21574;-75
2022/03/09 10:12:13;;;;;;;11.20;3.60;;;;;;;6.76;64.27;102259.63;1743228;80;21743;-75
2022/03/09 10:14:52;;;;;;;15.18;3.25;;;;;;;6.82;64.06;102256.50;1740024;80;21577;-75
2022/03/09 10:17:25;;;;;;;5.50;3.00;;;;;;;6.87;64.09;102254.17;1713920;82;21080;-75
2022/03/09 10:19:55;;;;;;;5.17;2.40;;;;;;;6.90;64.03;102260.51;1754889;81;21138;-75
2022/03/09 10:22:33;;;;;;;12.33;2.98;;;;;;;6.96;63.80;102258.30;1738043;81;21039;-75
2022/03/09 10:25:13;;;;;;;10.10;3.40;;;;;;;6.97;63.52;102257.89;1744544;81;21863;-75
2022/03/09 10:27:43;;;;;;;7.90;3.08;;;;;;;6.98;63.35;102265.85;1750333;81;21180;-74
2022/03/09 10:30:20;;;;;;;8.18;3.10;;;;;;;7.07;63.43;102273.78;1742535;81;21078;-74
2022/03/09 10:32:56;;;;;;;9.65;3.10;;;;;;;7.08;63.10;102268.64;1742862;81;21063;-75
2022/03/09 10:35:34;;;;;;;7.60;3.47;;;;;;;7.09;62.58;102274.78;1745079;82;21655;-75
2022/03/09 10:38:02;;;;;;;6.75;3.47;;;;;;;7.11;62.83;102284.53;1748993;80;21763;-75
2022/03/09 10:40:31;;;;;;;12.58;3.35;;;;;;;7.13;62.66;102272.47;1750908;80;21145;-74
2022/03/09 10:43:14;;;;;;;10.72;3.83;;;;;;;7.16;62.40;102278.30;1749425;82;21466;-74
2022/03/09 10:46:11;;;;;;;10.43;4.00;;;;;;;7.18;62.29;102276.67;1740339;81;22326;-74
2022/03/09 10:48:57;;;;;;;10.28;4.40;;;;;;;7.18;61.87;102281.50;1711955;83;21162;-74
2022/03/09 10:51:35;;;;;;;11.48;4.78;;;;;;;7.14;61.77;102286.45;1711481;82;21761;-74
2022/03/09 10:54:18;;;;;;;13.88;4.05;;;;;;;7.15;61.87;102289.18;1709369;82;21084;-74
2022/03/09 10:56:45;;;;;;;7.65;3.47;;;;;;;7.19;61.71;102293.80;1707800;83;21042;-74
2022/03/09 10:59:20;;;;;;;11.63;4.53;;;;;;;7.16;61.21;102276.98;1682153;83;21093;-74
2022/03/09 11:02:07;;;;;;;9.55;4.75;;;;;;;7.15;61.38;102280.02;1674317;83;21009;-74
2022/03/09 11:04:34;;;;;;;11.18;3.87;;;;;;;7.16;61.52;102288.77;1687241;83;21851;-74
2022/03/09 11:07:01;;;;;;;8.15;3.10;;;;;;;7.18;61.07;102278.88;1683986;83;21156;-74
2022/03/09 11:09:28;;;;;;;10.40;3.60;;;;;;;7.19;60.80;102283.73;1692376;82;21674;-74
2022/03/09 11:11:55;;;;;;;11.83;4.60;;;;;;;7.20;60.96;102282.91;1711625;83;21172;-75
2022/03/09 11:14:25;;;;;;;18.27;4.67;;;;;;;7.25;60.96;102289.77;1684429;84;21286;-74
2022/03/09 11:16:50;;;;;;;13.88;4.22;;;;;;;7.25;60.92;102289.77;1715873;82;21687;-75
2022/03/09 11:19:17;;;;;;;13.83;4.62;;;;;;;7.27;60.32;102296.00;1733406;81;21418;-74
2022/03/09 11:21:44;;;;;;;14.45;4.37;;;;;;;7.26;60.46;102292.87;1709915;83;21069;-74